sensor_id;sensor_type;location;lat;lon;timestamp;P1;durP1;ratioP1;P2;durP2;ratioP2
65691;SDS011;52411;52.716;6.696;2023-08-24T00:00:41;7.70;;;3.65;;
65691;SDS011;52411;52.716;6.696;2023-08-24T00:03:07;6.53;;;3.65;;
65691;SDS011;52411;52.716;6.696;2023-08-24T00:05:34;7.60;;;3.63;;
65691;SDS011;52411;52.716;6.696;2023-08-24T00:08:02;8.52;;;3.65;;
65691;SDS011;52411;52.716;6.696;2023-08-24T00:10:29;5.82;;;4.05;;
65691;SDS011;52411;52.716;6.696;2023-08-24T00:12:55;4.88;;;3.70;;
65691;SDS011;52411;52.716;6.696;2023-08-24T00:15:21;7.05;;;4.13;;
65691;SDS011;52411;52.716;6.696;2023-08-24T00:17:47;5.95;;;3.67;;
65691;SDS011;52411;52.716;6.696;2023-08-24T00:20:12;4.90;;;3.75;;
65691;SDS011;52411;52.716;6.696;2023-08-24T00:22:38;9.05;;;4.18;;
65691;SDS011;52411;52.716;6.696;2023-08-24T00:25:06;5.82;;;3.88;;
65691;SDS011;52411;52.716;6.696;2023-08-24T00:27:32;6.05;;;3.30;;
65691;SDS011;52411;52.716;6.696;2023-08-24T00:29:58;7.80;;;3.33;;
65691;SDS011;52411;52.716;6.696;2023-08-24T00:32:24;6.22;;;3.88;;
65691;SDS011;52411;52.716;6.696;2023-08-24T00:34:49;4.80;;;3.75;;
65691;SDS011;52411;52.716;6.696;2023-08-24T00:37:15;9.45;;;3.75;;
65691;SDS011;52411;52.716;6.696;2023-08-24T00:39:40;4.15;;;3.38;;
65691;SDS011;52411;52.716;6.696;2023-08-24T00:42:06;6.22;;;4.43;;
65691;SDS011;52411;52.716;6.696;2023-08-24T00:44:32;6.30;;;5.00;;
65691;SDS011;52411;52.716;6.696;2023-08-24T00:46:59;8.07;;;5.30;;
65691;SDS011;52411;52.716;6.696;2023-08-24T00:49:25;6.25;;;4.65;;
65691;SDS011;52411;52.716;6.696;2023-08-24T00:51:51;8.48;;;4.97;;
65691;SDS011;52411;52.716;6.696;2023-08-24T00:54:17;7.65;;;4.82;;
65691;SDS011;52411;52.716;6.696;2023-08-24T00:56:43;7.43;;;5.53;;
65691;SDS011;52411;52.716;6.696;2023-08-24T00:59:09;7.20;;;5.25;;
65691;SDS011;52411;52.716;6.696;2023-08-24T01:01:35;8.60;;;5.50;;
65691;SDS011;52411;52.716;6.696;2023-08-24T01:04:01;9.02;;;6.07;;
65691;SDS011;52411;52.716;6.696;2023-08-24T01:06:27;8.52;;;5.40;;
65691;SDS011;52411;52.716;6.696;2023-08-24T01:08:53;9.82;;;4.50;;
65691;SDS011;52411;52.716;6.696;2023-08-24T01:16:55;8.43;;;4.88;;
65691;SDS011;52411;52.716;6.696;2023-08-24T01:25:00;8.50;;;5.22;;
65691;SDS011;52411;52.716;6.696;2023-08-24T01:27:35;7.57;;;5.03;;
65691;SDS011;52411;52.716;6.696;2023-08-24T01:30:02;9.90;;;6.15;;
65691;SDS011;52411;52.716;6.696;2023-08-24T01:32:32;10.30;;;6.53;;
65691;SDS011;52411;52.716;6.696;2023-08-24T01:34:59;9.88;;;6.53;;
65691;SDS011;52411;52.716;6.696;2023-08-24T01:37:36;11.65;;;7.22;;
65691;SDS011;52411;52.716;6.696;2023-08-24T01:42:33;10.00;;;7.45;;
65691;SDS011;52411;52.716;6.696;2023-08-24T01:45:04;10.15;;;8.25;;
65691;SDS011;52411;52.716;6.696;2023-08-24T01:47:33;11.13;;;7.80;;
65691;SDS011;52411;52.716;6.696;2023-08-24T01:50:00;11.82;;;8.10;;
65691;SDS011;52411;52.716;6.696;2023-08-24T01:52:27;10.63;;;8.50;;
65691;SDS011;52411;52.716;6.696;2023-08-24T01:54:53;15.45;;;8.60;;
65691;SDS011;52411;52.716;6.696;2023-08-24T01:57:19;13.68;;;8.25;;
65691;SDS011;52411;52.716;6.696;2023-08-24T01:59:44;14.70;;;8.63;;
65691;SDS011;52411;52.716;6.696;2023-08-24T02:02:10;15.32;;;8.80;;
65691;SDS011;52411;52.716;6.696;2023-08-24T02:04:36;12.15;;;8.63;;
65691;SDS011;52411;52.716;6.696;2023-08-24T02:07:01;13.45;;;8.68;;
65691;SDS011;52411;52.716;6.696;2023-08-24T02:09:27;12.43;;;8.52;;
65691;SDS011;52411;52.716;6.696;2023-08-24T02:11:52;11.20;;;8.30;;
65691;SDS011;52411;52.716;6.696;2023-08-24T02:14:18;13.50;;;8.40;;
65691;SDS011;52411;52.716;6.696;2023-08-24T02:16:44;17.30;;;9.43;;
65691;SDS011;52411;52.716;6.696;2023-08-24T02:19:10;14.30;;;8.80;;
65691;SDS011;52411;52.716;6.696;2023-08-24T02:21:36;13.23;;;9.00;;
65691;SDS011;52411;52.716;6.696;2023-08-24T02:24:02;12.38;;;8.60;;
65691;SDS011;52411;52.716;6.696;2023-08-24T02:26:29;15.90;;;8.88;;
65691;SDS011;52411;52.716;6.696;2023-08-24T02:28:54;17.40;;;9.15;;
65691;SDS011;52411;52.716;6.696;2023-08-24T02:31:22;12.02;;;8.73;;
65691;SDS011;52411;52.716;6.696;2023-08-24T02:33:47;15.70;;;9.55;;
65691;SDS011;52411;52.716;6.696;2023-08-24T02:36:14;11.60;;;8.05;;
65691;SDS011;52411;52.716;6.696;2023-08-24T02:38:39;15.55;;;9.45;;
65691;SDS011;52411;52.716;6.696;2023-08-24T02:41:06;13.32;;;9.45;;
65691;SDS011;52411;52.716;6.696;2023-08-24T02:43:33;15.45;;;9.55;;
65691;SDS011;52411;52.716;6.696;2023-08-24T02:46:08;17.58;;;9.68;;
65691;SDS011;52411;52.716;6.696;2023-08-24T02:48:34;13.40;;;9.50;;
65691;SDS011;52411;52.716;6.696;2023-08-24T02:51:01;15.73;;;9.43;;
65691;SDS011;52411;52.716;6.696;2023-08-24T02:53:29;18.60;;;9.73;;
65691;SDS011;52411;52.716;6.696;2023-08-24T02:55:55;13.32;;;9.02;;
65691;SDS011;52411;52.716;6.696;2023-08-24T02:58:21;15.40;;;9.98;;
65691;SDS011;52411;52.716;6.696;2023-08-24T03:00:47;15.20;;;9.77;;
65691;SDS011;52411;52.716;6.696;2023-08-24T03:03:13;18.65;;;9.30;;
65691;SDS011;52411;52.716;6.696;2023-08-24T03:05:40;12.30;;;8.63;;
65691;SDS011;52411;52.716;6.696;2023-08-24T03:08:06;15.15;;;9.45;;
65691;SDS011;52411;52.716;6.696;2023-08-24T03:10:34;13.05;;;9.85;;
65691;SDS011;52411;52.716;6.696;2023-08-24T03:13:00;13.82;;;10.07;;
65691;SDS011;52411;52.716;6.696;2023-08-24T03:15:26;15.93;;;10.30;;
65691;SDS011;52411;52.716;6.696;2023-08-24T03:17:52;13.18;;;9.25;;
65691;SDS011;52411;52.716;6.696;2023-08-24T03:20:18;13.90;;;8.95;;
65691;SDS011;52411;52.716;6.696;2023-08-24T03:22:44;14.27;;;9.75;;
65691;SDS011;52411;52.716;6.696;2023-08-24T03:25:09;16.60;;;9.90;;
65691;SDS011;52411;52.716;6.696;2023-08-24T03:27:35;14.55;;;10.45;;
65691;SDS011;52411;52.716;6.696;2023-08-24T03:30:01;17.00;;;10.07;;
65691;SDS011;52411;52.716;6.696;2023-08-24T03:32:29;15.35;;;10.60;;
65691;SDS011;52411;52.716;6.696;2023-08-24T03:35:00;16.55;;;10.38;;
65691;SDS011;52411;52.716;6.696;2023-08-24T03:37:28;18.45;;;10.10;;
65691;SDS011;52411;52.716;6.696;2023-08-24T03:39:53;13.20;;;10.55;;
65691;SDS011;52411;52.716;6.696;2023-08-24T03:42:19;16.70;;;10.73;;
65691;SDS011;52411;52.716;6.696;2023-08-24T03:44:44;14.88;;;9.38;;
65691;SDS011;52411;52.716;6.696;2023-08-24T03:47:10;15.93;;;10.63;;
65691;SDS011;52411;52.716;6.696;2023-08-24T03:49:36;14.48;;;10.10;;
65691;SDS011;52411;52.716;6.696;2023-08-24T03:52:02;15.25;;;10.43;;
65691;SDS011;52411;52.716;6.696;2023-08-24T03:54:28;13.15;;;9.65;;
65691;SDS011;52411;52.716;6.696;2023-08-24T03:56:54;13.63;;;9.82;;
65691;SDS011;52411;52.716;6.696;2023-08-24T03:59:19;13.90;;;9.52;;
65691;SDS011;52411;52.716;6.696;2023-08-24T04:01:45;12.70;;;9.75;;
65691;SDS011;52411;52.716;6.696;2023-08-24T04:04:11;17.65;;;11.00;;
65691;SDS011;52411;52.716;6.696;2023-08-24T04:06:36;15.82;;;10.90;;
65691;SDS011;52411;52.716;6.696;2023-08-24T04:09:02;15.82;;;11.07;;
65691;SDS011;52411;52.716;6.696;2023-08-24T04:11:29;17.38;;;11.50;;
65691;SDS011;52411;52.716;6.696;2023-08-24T04:13:55;19.38;;;12.30;;
65691;SDS011;52411;52.716;6.696;2023-08-24T04:16:20;17.88;;;12.63;;
65691;SDS011;52411;52.716;6.696;2023-08-24T04:18:46;17.00;;;12.07;;
65691;SDS011;52411;52.716;6.696;2023-08-24T04:21:12;22.33;;;12.05;;
65691;SDS011;52411;52.716;6.696;2023-08-24T04:23:37;16.75;;;11.50;;
65691;SDS011;52411;52.716;6.696;2023-08-24T04:26:03;18.35;;;11.90;;
65691;SDS011;52411;52.716;6.696;2023-08-24T04:28:30;16.65;;;11.25;;
65691;SDS011;52411;52.716;6.696;2023-08-24T04:30:56;16.25;;;11.35;;
65691;SDS011;52411;52.716;6.696;2023-08-24T04:33:22;17.17;;;11.30;;
65691;SDS011;52411;52.716;6.696;2023-08-24T04:35:50;18.30;;;11.18;;
65691;SDS011;52411;52.716;6.696;2023-08-24T04:38:16;15.20;;;10.90;;
65691;SDS011;52411;52.716;6.696;2023-08-24T04:40:46;17.23;;;11.07;;
65691;SDS011;52411;52.716;6.696;2023-08-24T04:43:19;15.77;;;11.05;;
65691;SDS011;52411;52.716;6.696;2023-08-24T04:45:49;18.98;;;11.60;;
65691;SDS011;52411;52.716;6.696;2023-08-24T04:50:44;19.90;;;11.77;;
65691;SDS011;52411;52.716;6.696;2023-08-24T04:53:13;19.15;;;11.95;;
65691;SDS011;52411;52.716;6.696;2023-08-24T04:55:40;17.58;;;11.32;;
65691;SDS011;52411;52.716;6.696;2023-08-24T04:58:07;20.80;;;11.43;;
65691;SDS011;52411;52.716;6.696;2023-08-24T05:00:33;18.45;;;11.77;;
65691;SDS011;52411;52.716;6.696;2023-08-24T05:03:00;19.90;;;10.95;;
65691;SDS011;52411;52.716;6.696;2023-08-24T05:05:28;18.83;;;11.68;;
65691;SDS011;52411;52.716;6.696;2023-08-24T05:07:54;19.17;;;10.68;;
65691;SDS011;52411;52.716;6.696;2023-08-24T05:10:20;16.20;;;10.02;;
65691;SDS011;52411;52.716;6.696;2023-08-24T05:12:46;17.88;;;10.60;;
65691;SDS011;52411;52.716;6.696;2023-08-24T05:15:12;17.20;;;10.35;;
65691;SDS011;52411;52.716;6.696;2023-08-24T05:17:38;14.07;;;10.05;;
65691;SDS011;52411;52.716;6.696;2023-08-24T05:20:05;14.20;;;10.30;;
65691;SDS011;52411;52.716;6.696;2023-08-24T05:22:31;14.23;;;10.07;;
65691;SDS011;52411;52.716;6.696;2023-08-24T05:24:57;18.75;;;10.40;;
65691;SDS011;52411;52.716;6.696;2023-08-24T05:27:22;14.52;;;9.65;;
65691;SDS011;52411;52.716;6.696;2023-08-24T05:29:48;12.18;;;9.40;;
65691;SDS011;52411;52.716;6.696;2023-08-24T05:32:14;16.92;;;10.20;;
65691;SDS011;52411;52.716;6.696;2023-08-24T05:34:39;14.38;;;9.18;;
65691;SDS011;52411;52.716;6.696;2023-08-24T05:37:05;22.13;;;9.90;;
65691;SDS011;52411;52.716;6.696;2023-08-24T05:39:30;17.73;;;10.38;;
65691;SDS011;52411;52.716;6.696;2023-08-24T05:41:56;18.98;;;9.68;;
65691;SDS011;52411;52.716;6.696;2023-08-24T05:44:22;18.15;;;10.32;;
65691;SDS011;52411;52.716;6.696;2023-08-24T05:46:47;15.02;;;9.82;;
65691;SDS011;52411;52.716;6.696;2023-08-24T05:49:13;18.58;;;10.35;;
65691;SDS011;52411;52.716;6.696;2023-08-24T05:51:39;16.48;;;9.48;;
65691;SDS011;52411;52.716;6.696;2023-08-24T05:54:05;17.38;;;10.20;;
65691;SDS011;52411;52.716;6.696;2023-08-24T05:56:30;14.15;;;9.50;;
65691;SDS011;52411;52.716;6.696;2023-08-24T05:58:57;13.90;;;9.35;;
65691;SDS011;52411;52.716;6.696;2023-08-24T06:01:23;15.85;;;9.63;;
65691;SDS011;52411;52.716;6.696;2023-08-24T06:03:49;13.90;;;9.55;;
65691;SDS011;52411;52.716;6.696;2023-08-24T06:06:15;13.57;;;9.43;;
65691;SDS011;52411;52.716;6.696;2023-08-24T06:08:41;14.48;;;9.20;;
65691;SDS011;52411;52.716;6.696;2023-08-24T06:11:07;17.02;;;9.43;;
65691;SDS011;52411;52.716;6.696;2023-08-24T06:13:33;15.18;;;9.57;;
65691;SDS011;52411;52.716;6.696;2023-08-24T06:15:59;15.43;;;9.32;;
65691;SDS011;52411;52.716;6.696;2023-08-24T06:18:25;16.17;;;9.02;;
65691;SDS011;52411;52.716;6.696;2023-08-24T06:20:50;20.10;;;9.75;;
65691;SDS011;52411;52.716;6.696;2023-08-24T06:23:19;15.60;;;9.52;;
65691;SDS011;52411;52.716;6.696;2023-08-24T06:25:46;14.55;;;10.05;;
65691;SDS011;52411;52.716;6.696;2023-08-24T06:28:12;18.13;;;10.10;;
65691;SDS011;52411;52.716;6.696;2023-08-24T06:30:39;16.08;;;10.52;;
65691;SDS011;52411;52.716;6.696;2023-08-24T06:33:05;17.88;;;10.95;;
65691;SDS011;52411;52.716;6.696;2023-08-24T06:35:34;16.27;;;10.88;;
65691;SDS011;52411;52.716;6.696;2023-08-24T06:38:00;22.88;;;11.68;;
65691;SDS011;52411;52.716;6.696;2023-08-24T06:40:27;17.67;;;11.68;;
65691;SDS011;52411;52.716;6.696;2023-08-24T06:42:53;20.40;;;12.60;;
65691;SDS011;52411;52.716;6.696;2023-08-24T06:45:19;19.60;;;12.70;;
65691;SDS011;52411;52.716;6.696;2023-08-24T06:47:45;19.67;;;12.60;;
65691;SDS011;52411;52.716;6.696;2023-08-24T06:50:10;22.02;;;13.57;;
65691;SDS011;52411;52.716;6.696;2023-08-24T06:52:37;24.55;;;14.10;;
65691;SDS011;52411;52.716;6.696;2023-08-24T06:55:03;23.25;;;13.85;;
65691;SDS011;52411;52.716;6.696;2023-08-24T06:57:30;26.10;;;14.38;;
65691;SDS011;52411;52.716;6.696;2023-08-24T06:59:55;22.98;;;14.85;;
65691;SDS011;52411;52.716;6.696;2023-08-24T07:02:21;20.83;;;14.32;;
65691;SDS011;52411;52.716;6.696;2023-08-24T07:04:47;23.60;;;15.18;;
65691;SDS011;52411;52.716;6.696;2023-08-24T07:07:13;30.08;;;16.52;;
65691;SDS011;52411;52.716;6.696;2023-08-24T07:09:39;20.90;;;15.05;;
65691;SDS011;52411;52.716;6.696;2023-08-24T07:12:05;25.35;;;15.73;;
65691;SDS011;52411;52.716;6.696;2023-08-24T07:14:38;24.88;;;15.48;;
65691;SDS011;52411;52.716;6.696;2023-08-24T07:17:04;20.60;;;14.80;;
65691;SDS011;52411;52.716;6.696;2023-08-24T07:19:31;24.38;;;14.48;;
65691;SDS011;52411;52.716;6.696;2023-08-24T07:21:56;23.52;;;14.80;;
65691;SDS011;52411;52.716;6.696;2023-08-24T07:24:22;23.58;;;14.95;;
65691;SDS011;52411;52.716;6.696;2023-08-24T07:26:51;24.75;;;14.38;;
65691;SDS011;52411;52.716;6.696;2023-08-24T07:29:17;20.98;;;14.07;;
65691;SDS011;52411;52.716;6.696;2023-08-24T07:31:44;21.00;;;14.45;;
65691;SDS011;52411;52.716;6.696;2023-08-24T07:34:10;23.98;;;14.60;;
65691;SDS011;52411;52.716;6.696;2023-08-24T07:36:35;22.35;;;15.23;;
65691;SDS011;52411;52.716;6.696;2023-08-24T07:39:01;23.23;;;15.80;;
65691;SDS011;52411;52.716;6.696;2023-08-24T07:41:27;22.48;;;14.20;;
65691;SDS011;52411;52.716;6.696;2023-08-24T07:43:53;20.27;;;13.82;;
65691;SDS011;52411;52.716;6.696;2023-08-24T07:46:18;21.30;;;14.18;;
65691;SDS011;52411;52.716;6.696;2023-08-24T07:48:44;18.83;;;13.57;;
65691;SDS011;52411;52.716;6.696;2023-08-24T07:51:09;18.30;;;13.73;;
65691;SDS011;52411;52.716;6.696;2023-08-24T07:53:35;23.45;;;14.10;;
65691;SDS011;52411;52.716;6.696;2023-08-24T07:56:00;19.63;;;13.55;;
65691;SDS011;52411;52.716;6.696;2023-08-24T07:58:26;23.80;;;14.80;;
65691;SDS011;52411;52.716;6.696;2023-08-24T08:00:52;20.35;;;14.32;;
65691;SDS011;52411;52.716;6.696;2023-08-24T08:03:18;16.55;;;13.68;;
65691;SDS011;52411;52.716;6.696;2023-08-24T08:05:45;20.25;;;13.23;;
65691;SDS011;52411;52.716;6.696;2023-08-24T08:08:15;22.08;;;14.15;;
65691;SDS011;52411;52.716;6.696;2023-08-24T08:10:42;27.55;;;15.15;;
65691;SDS011;52411;52.716;6.696;2023-08-24T08:13:08;21.80;;;14.73;;
65691;SDS011;52411;52.716;6.696;2023-08-24T08:15:36;22.80;;;14.57;;
65691;SDS011;52411;52.716;6.696;2023-08-24T08:18:03;18.90;;;14.02;;
65691;SDS011;52411;52.716;6.696;2023-08-24T08:20:29;22.83;;;14.60;;
65691;SDS011;52411;52.716;6.696;2023-08-24T08:22:55;17.17;;;13.88;;
65691;SDS011;52411;52.716;6.696;2023-08-24T08:25:21;20.27;;;14.75;;
65691;SDS011;52411;52.716;6.696;2023-08-24T08:27:47;19.65;;;15.02;;
65691;SDS011;52411;52.716;6.696;2023-08-24T08:30:14;25.60;;;15.68;;
65691;SDS011;52411;52.716;6.696;2023-08-24T08:32:40;22.80;;;14.95;;
65691;SDS011;52411;52.716;6.696;2023-08-24T08:35:06;20.23;;;14.27;;
65691;SDS011;52411;52.716;6.696;2023-08-24T08:37:33;20.88;;;15.50;;
65691;SDS011;52411;52.716;6.696;2023-08-24T08:39:59;25.92;;;15.32;;
65691;SDS011;52411;52.716;6.696;2023-08-24T08:42:24;22.35;;;15.70;;
65691;SDS011;52411;52.716;6.696;2023-08-24T08:44:50;22.45;;;15.35;;
65691;SDS011;52411;52.716;6.696;2023-08-24T08:47:19;26.77;;;16.35;;
65691;SDS011;52411;52.716;6.696;2023-08-24T08:49:47;22.30;;;15.20;;
65691;SDS011;52411;52.716;6.696;2023-08-24T08:52:13;19.83;;;14.63;;
65691;SDS011;52411;52.716;6.696;2023-08-24T08:54:39;23.13;;;14.68;;
65691;SDS011;52411;52.716;6.696;2023-08-24T08:57:05;21.75;;;15.35;;
65691;SDS011;52411;52.716;6.696;2023-08-24T08:59:32;20.23;;;15.30;;
65691;SDS011;52411;52.716;6.696;2023-08-24T09:01:58;18.80;;;14.18;;
65691;SDS011;52411;52.716;6.696;2023-08-24T09:04:29;19.55;;;14.00;;
65691;SDS011;52411;52.716;6.696;2023-08-24T09:06:58;21.67;;;14.32;;
65691;SDS011;52411;52.716;6.696;2023-08-24T09:09:28;17.67;;;13.93;;
65691;SDS011;52411;52.716;6.696;2023-08-24T09:11:54;17.58;;;13.60;;
65691;SDS011;52411;52.716;6.696;2023-08-24T09:14:21;22.20;;;13.88;;
65691;SDS011;52411;52.716;6.696;2023-08-24T09:16:46;19.27;;;13.55;;
65691;SDS011;52411;52.716;6.696;2023-08-24T09:19:12;18.25;;;13.20;;
65691;SDS011;52411;52.716;6.696;2023-08-24T09:21:38;17.35;;;13.45;;
65691;SDS011;52411;52.716;6.696;2023-08-24T09:24:05;18.45;;;13.23;;
65691;SDS011;52411;52.716;6.696;2023-08-24T09:26:32;15.80;;;12.63;;
65691;SDS011;52411;52.716;6.696;2023-08-24T09:28:59;16.10;;;11.80;;
65691;SDS011;52411;52.716;6.696;2023-08-24T09:31:35;17.42;;;12.75;;
65691;SDS011;52411;52.716;6.696;2023-08-24T09:34:05;18.52;;;12.80;;
65691;SDS011;52411;52.716;6.696;2023-08-24T09:36:34;16.90;;;12.20;;
65691;SDS011;52411;52.716;6.696;2023-08-24T09:39:01;16.02;;;12.65;;
65691;SDS011;52411;52.716;6.696;2023-08-24T09:41:43;14.27;;;12.13;;
65691;SDS011;52411;52.716;6.696;2023-08-24T09:44:09;19.77;;;12.90;;
65691;SDS011;52411;52.716;6.696;2023-08-24T09:46:37;16.10;;;13.05;;
65691;SDS011;52411;52.716;6.696;2023-08-24T09:49:07;16.75;;;12.60;;
65691;SDS011;52411;52.716;6.696;2023-08-24T09:54:01;17.67;;;13.25;;
65691;SDS011;52411;52.716;6.696;2023-08-24T09:56:34;15.93;;;12.98;;
65691;SDS011;52411;52.716;6.696;2023-08-24T09:59:04;18.15;;;13.68;;
65691;SDS011;52411;52.716;6.696;2023-08-24T10:01:42;18.45;;;13.82;;
65691;SDS011;52411;52.716;6.696;2023-08-24T10:04:09;19.63;;;13.80;;
65691;SDS011;52411;52.716;6.696;2023-08-24T10:06:38;16.95;;;13.38;;
65691;SDS011;52411;52.716;6.696;2023-08-24T10:09:06;16.75;;;13.15;;
65691;SDS011;52411;52.716;6.696;2023-08-24T10:11:34;16.55;;;13.25;;
65691;SDS011;52411;52.716;6.696;2023-08-24T10:14:19;16.75;;;14.63;;
65691;SDS011;52411;52.716;6.696;2023-08-24T10:16:49;15.60;;;13.98;;
65691;SDS011;52411;52.716;6.696;2023-08-24T10:19:17;19.50;;;14.63;;
65691;SDS011;52411;52.716;6.696;2023-08-24T10:21:44;15.60;;;13.80;;
65691;SDS011;52411;52.716;6.696;2023-08-24T10:24:11;17.65;;;13.80;;
65691;SDS011;52411;52.716;6.696;2023-08-24T10:26:38;16.92;;;15.02;;
65691;SDS011;52411;52.716;6.696;2023-08-24T10:29:05;17.42;;;14.95;;
65691;SDS011;52411;52.716;6.696;2023-08-24T10:31:31;17.30;;;15.50;;
65691;SDS011;52411;52.716;6.696;2023-08-24T10:33:58;18.08;;;14.85;;
65691;SDS011;52411;52.716;6.696;2023-08-24T10:36:25;19.85;;;15.80;;
65691;SDS011;52411;52.716;6.696;2023-08-24T10:38:54;19.10;;;15.80;;
65691;SDS011;52411;52.716;6.696;2023-08-24T10:41:25;18.98;;;15.48;;
65691;SDS011;52411;52.716;6.696;2023-08-24T10:43:52;19.48;;;16.45;;
65691;SDS011;52411;52.716;6.696;2023-08-24T10:46:28;20.83;;;16.15;;
65691;SDS011;52411;52.716;6.696;2023-08-24T10:49:03;18.77;;;15.90;;
65691;SDS011;52411;52.716;6.696;2023-08-24T10:51:29;21.10;;;16.05;;
65691;SDS011;52411;52.716;6.696;2023-08-24T10:53:57;22.13;;;15.48;;
65691;SDS011;52411;52.716;6.696;2023-08-24T10:56:37;17.52;;;15.75;;
65691;SDS011;52411;52.716;6.696;2023-08-24T10:59:13;21.95;;;15.38;;
65691;SDS011;52411;52.716;6.696;2023-08-24T11:01:41;18.35;;;14.70;;
65691;SDS011;52411;52.716;6.696;2023-08-24T11:04:19;17.60;;;14.40;;
65691;SDS011;52411;52.716;6.696;2023-08-24T11:06:57;17.88;;;15.60;;
65691;SDS011;52411;52.716;6.696;2023-08-24T11:09:25;20.27;;;15.32;;
65691;SDS011;52411;52.716;6.696;2023-08-24T11:11:56;18.50;;;13.45;;
65691;SDS011;52411;52.716;6.696;2023-08-24T11:14:22;20.55;;;14.40;;
65691;SDS011;52411;52.716;6.696;2023-08-24T11:16:51;18.45;;;14.20;;
65691;SDS011;52411;52.716;6.696;2023-08-24T11:19:17;17.45;;;13.05;;
65691;SDS011;52411;52.716;6.696;2023-08-24T11:21:44;14.93;;;13.35;;
65691;SDS011;52411;52.716;6.696;2023-08-24T11:24:12;21.40;;;13.23;;
65691;SDS011;52411;52.716;6.696;2023-08-24T11:29:13;17.52;;;12.25;;
65691;SDS011;52411;52.716;6.696;2023-08-24T11:31:40;13.75;;;11.30;;
65691;SDS011;52411;52.716;6.696;2023-08-24T11:34:06;15.20;;;11.77;;
65691;SDS011;52411;52.716;6.696;2023-08-24T11:39:28;16.48;;;11.82;;
65691;SDS011;52411;52.716;6.696;2023-08-24T11:42:04;14.52;;;12.45;;
65691;SDS011;52411;52.716;6.696;2023-08-24T11:44:46;15.68;;;12.60;;
65691;SDS011;52411;52.716;6.696;2023-08-24T11:47:14;18.15;;;13.00;;
65691;SDS011;52411;52.716;6.696;2023-08-24T11:49:41;17.35;;;13.02;;
65691;SDS011;52411;52.716;6.696;2023-08-24T11:52:07;20.55;;;12.27;;
65691;SDS011;52411;52.716;6.696;2023-08-24T11:54:33;17.13;;;13.30;;
65691;SDS011;52411;52.716;6.696;2023-08-24T11:57:05;14.52;;;12.48;;
65691;SDS011;52411;52.716;6.696;2023-08-24T11:59:31;17.13;;;13.30;;
65691;SDS011;52411;52.716;6.696;2023-08-24T12:01:57;18.27;;;13.48;;
65691;SDS011;52411;52.716;6.696;2023-08-24T12:04:24;14.82;;;12.85;;
65691;SDS011;52411;52.716;6.696;2023-08-24T12:06:49;18.20;;;12.75;;
65691;SDS011;52411;52.716;6.696;2023-08-24T12:09:15;20.27;;;13.15;;
65691;SDS011;52411;52.716;6.696;2023-08-24T12:11:41;17.88;;;11.55;;
65691;SDS011;52411;52.716;6.696;2023-08-24T12:14:07;18.25;;;12.05;;
65691;SDS011;52411;52.716;6.696;2023-08-24T12:16:34;14.95;;;11.48;;
65691;SDS011;52411;52.716;6.696;2023-08-24T12:19:01;14.88;;;11.98;;
65691;SDS011;52411;52.716;6.696;2023-08-24T12:21:30;15.13;;;11.82;;
65691;SDS011;52411;52.716;6.696;2023-08-24T12:23:59;14.55;;;12.02;;
65691;SDS011;52411;52.716;6.696;2023-08-24T12:28:53;14.93;;;12.55;;
65691;SDS011;52411;52.716;6.696;2023-08-24T12:31:20;15.18;;;11.73;;
65691;SDS011;52411;52.716;6.696;2023-08-24T12:36:31;17.15;;;12.18;;
65691;SDS011;52411;52.716;6.696;2023-08-24T12:38:57;16.35;;;13.75;;
65691;SDS011;52411;52.716;6.696;2023-08-24T12:41:23;15.93;;;13.15;;
65691;SDS011;52411;52.716;6.696;2023-08-24T12:43:50;16.20;;;13.10;;
65691;SDS011;52411;52.716;6.696;2023-08-24T12:46:16;14.45;;;12.30;;
65691;SDS011;52411;52.716;6.696;2023-08-24T12:48:42;18.05;;;12.68;;
65691;SDS011;52411;52.716;6.696;2023-08-24T12:51:07;16.73;;;12.88;;
65691;SDS011;52411;52.716;6.696;2023-08-24T12:53:33;14.05;;;12.55;;
65691;SDS011;52411;52.716;6.696;2023-08-24T12:55:59;14.75;;;12.57;;
65691;SDS011;52411;52.716;6.696;2023-08-24T12:58:24;18.08;;;13.57;;
65691;SDS011;52411;52.716;6.696;2023-08-24T13:00:50;15.10;;;13.07;;
65691;SDS011;52411;52.716;6.696;2023-08-24T13:03:16;16.25;;;13.63;;
65691;SDS011;52411;52.716;6.696;2023-08-24T13:05:41;17.00;;;12.98;;
65691;SDS011;52411;52.716;6.696;2023-08-24T13:08:07;17.13;;;13.95;;
65691;SDS011;52411;52.716;6.696;2023-08-24T13:10:33;17.40;;;13.02;;
65691;SDS011;52411;52.716;6.696;2023-08-24T13:13:01;14.45;;;12.80;;
65691;SDS011;52411;52.716;6.696;2023-08-24T13:15:27;15.43;;;13.10;;
65691;SDS011;52411;52.716;6.696;2023-08-24T13:17:53;18.25;;;13.38;;
65691;SDS011;52411;52.716;6.696;2023-08-24T13:20:18;19.95;;;13.43;;
65691;SDS011;52411;52.716;6.696;2023-08-24T13:22:44;14.85;;;12.90;;
65691;SDS011;52411;52.716;6.696;2023-08-24T13:25:09;13.85;;;12.43;;
65691;SDS011;52411;52.716;6.696;2023-08-24T13:27:35;14.45;;;12.25;;
65691;SDS011;52411;52.716;6.696;2023-08-24T13:30:01;17.15;;;13.07;;
65691;SDS011;52411;52.716;6.696;2023-08-24T13:32:27;17.15;;;12.07;;
65691;SDS011;52411;52.716;6.696;2023-08-24T13:34:53;16.00;;;12.60;;
65691;SDS011;52411;52.716;6.696;2023-08-24T13:37:18;15.23;;;12.05;;
65691;SDS011;52411;52.716;6.696;2023-08-24T13:39:44;14.40;;;11.82;;
65691;SDS011;52411;52.716;6.696;2023-08-24T13:42:10;14.85;;;12.02;;
65691;SDS011;52411;52.716;6.696;2023-08-24T13:44:35;18.52;;;11.90;;
65691;SDS011;52411;52.716;6.696;2023-08-24T13:47:01;16.42;;;12.43;;
65691;SDS011;52411;52.716;6.696;2023-08-24T13:49:27;14.48;;;11.55;;
65691;SDS011;52411;52.716;6.696;2023-08-24T13:51:52;17.00;;;11.85;;
65691;SDS011;52411;52.716;6.696;2023-08-24T13:54:18;25.65;;;11.93;;
65691;SDS011;52411;52.716;6.696;2023-08-24T13:56:46;14.90;;;12.27;;
65691;SDS011;52411;52.716;6.696;2023-08-24T13:59:13;14.65;;;11.32;;
65691;SDS011;52411;52.716;6.696;2023-08-24T14:01:39;20.63;;;12.95;;
65691;SDS011;52411;52.716;6.696;2023-08-24T14:04:05;19.65;;;12.93;;
65691;SDS011;52411;52.716;6.696;2023-08-24T14:06:32;16.98;;;13.30;;
65691;SDS011;52411;52.716;6.696;2023-08-24T14:08:59;14.63;;;13.02;;
65691;SDS011;52411;52.716;6.696;2023-08-24T14:11:25;18.30;;;13.20;;
65691;SDS011;52411;52.716;6.696;2023-08-24T14:13:53;15.70;;;12.10;;
65691;SDS011;52411;52.716;6.696;2023-08-24T14:16:18;20.35;;;12.25;;
65691;SDS011;52411;52.716;6.696;2023-08-24T14:18:47;15.82;;;12.30;;
65691;SDS011;52411;52.716;6.696;2023-08-24T14:21:14;16.55;;;12.43;;
65691;SDS011;52411;52.716;6.696;2023-08-24T14:23:40;17.77;;;13.27;;
65691;SDS011;52411;52.716;6.696;2023-08-24T14:26:06;16.85;;;12.90;;
65691;SDS011;52411;52.716;6.696;2023-08-24T14:28:51;19.25;;;12.35;;
65691;SDS011;52411;52.716;6.696;2023-08-24T14:31:22;19.30;;;12.95;;
65691;SDS011;52411;52.716;6.696;2023-08-24T14:33:48;22.25;;;13.23;;
65691;SDS011;52411;52.716;6.696;2023-08-24T14:36:15;22.10;;;13.40;;
65691;SDS011;52411;52.716;6.696;2023-08-24T14:38:41;28.38;;;13.15;;
65691;SDS011;52411;52.716;6.696;2023-08-24T14:41:09;15.68;;;12.85;;
65691;SDS011;52411;52.716;6.696;2023-08-24T14:43:36;17.25;;;13.20;;
65691;SDS011;52411;52.716;6.696;2023-08-24T14:46:02;18.55;;;14.50;;
65691;SDS011;52411;52.716;6.696;2023-08-24T14:48:29;16.83;;;13.70;;
65691;SDS011;52411;52.716;6.696;2023-08-24T14:50:55;15.10;;;13.50;;
65691;SDS011;52411;52.716;6.696;2023-08-24T14:53:22;14.48;;;12.40;;